Time;durP1;ratioP1;P1;durP2;ratioP2;P2;SDS_P1;SDS_P2;PMS_P1;PMS_P2;Temp;Humidity;BMP_temperature;BMP_pressure;BME280_temperature;BME280_humidity;BME280_pressure;Samples;Min_cycle;Max_cycle;Signal;HPM_P1;HPM_P2
2022/07/06 00:02:20;;;;;;;39.10;6.80;;;;;;;16.26;100.00;98317.28;5058358;28;20043;-53
2022/07/06 00:04:46;;;;;;;32.78;6.50;;;;;;;16.42;100.00;98319.03;5059322;28;20320;-52
2022/07/06 00:07:11;;;;;;;38.42;7.18;;;;;;;16.79;100.00;98314.16;5058789;28;20068;-52
2022/07/06 00:09:36;;;;;;;48.60;7.45;;;;;;;16.75;100.00;98314.34;5058401;28;20024;-53
2022/07/06 00:12:02;;;;;;;32.92;6.80;;;;;;;16.57;100.00;98315.47;5057853;28;20040;-52
2022/07/06 00:14:28;;;;;;;36.88;6.65;;;;;;;16.95;100.00;98320.22;5058915;28;20483;-52
2022/07/06 00:16:53;;;;;;;34.78;6.82;;;;;;;16.83;100.00;98311.25;5058425;28;20093;-53
2022/07/06 00:19:18;;;;;;;39.05;6.97;;;;;;;16.45;100.00;98321.47;5058494;28;20031;-53
2022/07/06 00:21:44;;;;;;;38.25;7.10;;;;;;;16.18;100.00;98315.13;5057623;28;20040;-52
2022/07/06 00:24:09;;;;;;;30.60;6.50;;;;;;;16.54;100.00;98316.50;5058601;28;20035;-54
2022/07/06 00:26:34;;;;;;;35.17;6.82;;;;;;;16.71;100.00;98312.00;5057183;28;20037;-54
2022/07/06 00:29:00;;;;;;;38.80;7.03;;;;;;;16.70;100.00;98316.41;5058021;28;20032;-54
2022/07/06 00:31:25;;;;;;;34.97;6.55;;;;;;;16.38;100.00;98321.84;5058023;28;20036;-54
2022/07/06 00:33:51;;;;;;;36.80;6.80;;;;;;;16.53;100.00;98317.44;5059086;28;20024;-55
2022/07/06 00:36:16;;;;;;;34.40;6.03;;;;;;;16.96;100.00;98327.16;5058312;28;20040;-53
2022/07/06 00:38:42;;;;;;;39.65;7.28;;;;;;;16.61;100.00;98330.13;5058366;28;20024;-54
2022/07/06 00:41:07;;;;;;;34.42;6.45;;;;;;;16.67;100.00;98324.50;5057255;28;20098;-54
2022/07/06 00:43:55;;;;;;;35.50;6.78;;;;;;;16.35;100.00;98324.63;5058989;28;20482;-54
2022/07/06 00:46:26;;;;;;;35.63;6.82;;;;;;;15.90;100.00;98336.94;5057808;28;20037;-54
2022/07/06 00:48:51;;;;;;;36.22;6.97;;;;;;;16.40;100.00;98328.81;5058266;28;20557;-54
2022/07/06 00:51:17;;;;;;;31.20;6.32;;;;;;;16.30;100.00;98329.34;5057368;28;20050;-53
2022/07/06 00:53:43;;;;;;;27.67;5.68;;;;;;;16.34;100.00;98333.50;5057991;28;20482;-53
2022/07/06 00:56:09;;;;;;;32.50;6.63;;;;;;;16.02;100.00;98326.63;5057893;28;20049;-53
2022/07/06 00:58:35;;;;;;;40.65;7.10;;;;;;;15.74;100.00;98336.09;5058200;28;20063;-54
2022/07/06 01:01:00;;;;;;;36.30;6.60;;;;;;;15.84;100.00;98329.38;5057062;28;20032;-54
2022/07/06 01:03:25;;;;;;;37.47;7.38;;;;;;;15.89;100.00;98329.97;5058194;28;20040;-54
2022/07/06 01:05:51;;;;;;;34.10;6.78;;;;;;;15.88;100.00;98330.91;5057940;28;20093;-54
2022/07/06 01:08:17;;;;;;;44.58;7.22;;;;;;;15.95;100.00;98327.00;5058525;28;20035;-55
2022/07/06 01:10:43;;;;;;;35.88;6.50;;;;;;;15.80;100.00;98336.59;5057045;28;20086;-53
2022/07/06 01:13:08;;;;;;;34.53;6.72;;;;;;;15.84;100.00;98332.00;5058270;28;20089;-53
2022/07/06 01:15:33;;;;;;;29.85;6.57;;;;;;;16.15;100.00;98335.50;5057534;28;20033;-55
2022/07/06 01:18:00;;;;;;;35.55;6.88;;;;;;;15.44;100.00;98331.63;5058203;28;20401;-53
2022/07/06 01:20:26;;;;;;;41.08;7.72;;;;;;;15.45;100.00;98337.72;5056452;28;20568;-53
2022/07/06 01:22:53;;;;;;;39.78;7.38;;;;;;;15.16;100.00;98338.38;5057909;28;20436;-54
2022/07/06 01:25:20;;;;;;;32.88;6.65;;;;;;;15.18;100.00;98344.41;5057918;28;20146;-54
2022/07/06 01:27:46;;;;;;;32.58;6.97;;;;;;;14.99;100.00;98343.69;5058437;28;20021;-54
2022/07/06 01:30:13;;;;;;;43.58;7.55;;;;;;;15.54;100.00;98345.09;5056299;28;20153;-55
2022/07/06 01:32:40;;;;;;;34.28;7.10;;;;;;;15.18;100.00;98344.41;5057473;28;20162;-53
2022/07/06 01:35:08;;;;;;;36.15;7.47;;;;;;;15.08;100.00;98342.34;5057789;28;20028;-55
2022/07/06 01:37:33;;;;;;;39.65;7.35;;;;;;;14.90;100.00;98347.63;5058945;28;20034;-55
2022/07/06 01:40:00;;;;;;;46.10;8.13;;;;;;;15.19;100.00;98343.44;5063916;28;20426;-53
2022/07/06 01:42:25;;;;;;;36.10;6.70;;;;;;;15.73;100.00;98342.25;5063682;28;20887;-56
2022/07/06 01:44:51;;;;;;;38.22;7.43;;;;;;;15.23;100.00;98350.22;5064373;28;20028;-53
2022/07/06 01:47:16;;;;;;;40.55;7.93;;;;;;;15.07;100.00;98352.03;5063868;28;20150;-55
2022/07/06 01:49:42;;;;;;;34.90;6.90;;;;;;;14.95;100.00;98352.66;5063999;28;20074;-54
2022/07/06 01:52:07;;;;;;;36.05;6.95;;;;;;;15.38;100.00;98345.06;5063630;28;20036;-53
2022/07/06 01:54:33;;;;;;;34.13;6.90;;;;;;;15.53;100.00;98331.09;5060683;28;20088;-53
2022/07/06 01:56:58;;;;;;;46.58;8.18;;;;;;;15.57;100.00;98335.25;5063418;28;20040;-54
2022/07/06 01:59:24;;;;;;;37.78;7.10;;;;;;;15.39;100.00;98341.53;5064373;28;20048;-54
2022/07/06 02:01:49;;;;;;;53.40;8.07;;;;;;;15.58;100.00;98342.19;5062931;28;20036;-53
2022/07/06 02:04:14;;;;;;;40.45;7.32;;;;;;;15.43;100.00;98336.00;5064514;28;20107;-55
2022/07/06 02:06:40;;;;;;;43.30;7.28;;;;;;;15.51;100.00;98337.34;5064305;28;20035;-55
2022/07/06 02:09:06;;;;;;;34.97;7.03;;;;;;;15.24;100.00;98337.97;5063728;28;20124;-53
2022/07/06 02:11:31;;;;;;;35.28;6.95;;;;;;;15.59;100.00;98337.78;5063015;28;20508;-55
2022/07/06 02:13:57;;;;;;;35.17;7.13;;;;;;;15.29;100.00;98345.56;5063972;28;20036;-54
2022/07/06 02:16:22;;;;;;;41.22;7.60;;;;;;;15.33;100.00;98342.72;5063895;28;20155;-53
2022/07/06 02:18:47;;;;;;;41.53;7.53;;;;;;;15.23;100.00;98339.72;5060142;28;20064;-54
2022/07/06 02:21:13;;;;;;;41.22;6.90;;;;;;;15.37;100.00;98340.75;5063501;27;20826;-54
2022/07/06 02:23:39;;;;;;;38.30;7.22;;;;;;;15.35;100.00;98338.22;5064178;28;20086;-53
2022/07/06 02:26:04;;;;;;;43.78;7.18;;;;;;;15.60;100.00;98342.97;5063120;28;20808;-55
2022/07/06 02:28:30;;;;;;;37.97;7.05;;;;;;;15.18;100.00;98344.41;5063871;28;20509;-53
2022/07/06 02:30:55;;;;;;;46.95;7.93;;;;;;;14.84;100.00;98351.44;5062411;28;20048;-54
2022/07/06 02:33:21;;;;;;;42.13;7.55;;;;;;;14.98;100.00;98358.59;5064081;28;20032;-53
2022/07/06 02:35:46;;;;;;;36.28;6.85;;;;;;;15.06;100.00;98360.81;5063947;28;20116;-53
2022/07/06 02:38:12;;;;;;;36.22;7.15;;;;;;;14.23;100.00;98365.06;5064449;28;20036;-53
2022/07/06 02:40:38;;;;;;;32.70;6.68;;;;;;;14.53;100.00;98367.91;5060107;28;20048;-55
2022/07/06 02:43:03;;;;;;;35.63;7.07;;;;;;;14.17;100.00;98368.84;5062214;28;20016;-55
2022/07/06 02:45:29;;;;;;;37.63;7.40;;;;;;;14.35;100.00;98361.81;5061788;28;20143;-54
2022/07/06 02:47:56;;;;;;;38.78;7.70;;;;;;;14.49;100.00;98360.28;5063950;28;20032;-54
2022/07/06 02:50:21;;;;;;;52.17;8.60;;;;;;;14.25;100.00;98357.97;5059350;28;20032;-54
2022/07/06 02:52:47;;;;;;;39.13;7.38;;;;;;;14.75;100.00;98362.44;5061649;28;20718;-53
2022/07/06 02:55:12;;;;;;;39.25;7.47;;;;;;;14.51;100.00;98359.28;5061009;28;20027;-55
2022/07/06 02:57:37;;;;;;;27.55;6.28;;;;;;;14.73;100.00;98366.91;5061247;28;20397;-54
2022/07/06 03:00:04;;;;;;;50.97;8.13;;;;;;;14.41;100.00;98372.03;5059836;28;20028;-53
2022/07/06 03:02:29;;;;;;;35.75;6.38;;;;;;;14.45;100.00;98368.31;5060218;28;20036;-53
2022/07/06 03:04:56;;;;;;;35.97;6.60;;;;;;;14.35;100.00;98364.44;5060663;28;20628;-51
2022/07/06 03:07:22;;;;;;;42.65;7.38;;;;;;;14.26;100.00;98371.03;5060844;28;20029;-54
2022/07/06 03:09:48;;;;;;;41.90;7.53;;;;;;;14.60;100.00;98365.88;5060141;28;20089;-52
2022/07/06 03:12:13;;;;;;;42.58;7.60;;;;;;;14.38;100.00;98369.53;5059164;28;20059;-52
2022/07/06 03:14:39;;;;;;;43.28;7.25;;;;;;;14.96;100.00;98370.09;5060359;28;20052;-54
2022/07/06 03:17:04;;;;;;;38.88;6.97;;;;;;;14.94;100.00;98374.59;5059413;28;20075;-55
2022/07/06 03:19:29;;;;;;;38.63;7.13;;;;;;;14.64;100.00;98380.53;5058200;28;20205;-54
2022/07/06 03:21:55;;;;;;;41.65;6.82;;;;;;;15.39;100.00;98373.06;5058909;28;20797;-53
2022/07/06 03:24:20;;;;;;;35.35;6.53;;;;;;;16.23;100.00;98359.59;5060139;28;20721;-53
2022/07/06 03:26:45;;;;;;;39.83;7.20;;;;;;;14.93;100.00;98367.66;5059205;28;20036;-52
2022/07/06 03:29:11;;;;;;;36.03;6.88;;;;;;;14.98;100.00;98368.25;5059035;28;20596;-53
2022/07/06 03:31:36;;;;;;;41.42;7.10;;;;;;;15.16;100.00;98371.66;5057247;28;20151;-53
2022/07/06 03:34:01;;;;;;;35.13;6.50;;;;;;;15.39;100.00;98378.31;5059834;28;20824;-52
2022/07/06 03:36:27;;;;;;;38.92;7.30;;;;;;;14.81;100.00;98377.00;5059392;28;20115;-53
2022/07/06 03:38:52;;;;;;;41.45;7.80;;;;;;;14.89;100.00;98380.09;5058298;28;20048;-52
2022/07/06 03:41:18;;;;;;;35.00;7.05;;;;;;;14.13;100.00;98382.19;5059076;28;20147;-52
2022/07/06 03:43:43;;;;;;;41.60;7.63;;;;;;;13.68;100.00;98379.94;5059657;28;20036;-52
2022/07/06 03:46:09;;;;;;;47.92;8.00;;;;;;;14.00;100.00;98379.31;5058804;28;20036;-52
2022/07/06 03:48:34;;;;;;;50.78;8.15;;;;;;;14.20;100.00;98376.56;5058758;28;20437;-52
2022/07/06 03:51:00;;;;;;;49.15;7.97;;;;;;;14.36;100.00;98381.91;5058680;28;20548;-54
2022/07/06 03:53:26;;;;;;;35.85;6.75;;;;;;;14.11;100.00;98387.50;5059514;28;20051;-53
2022/07/06 03:58:36;;;;;;;54.67;8.55;;;;;;;14.87;100.00;98396.84;5059598;28;20137;-55
2022/07/06 04:01:01;;;;;;;41.97;7.55;;;;;;;15.17;100.00;98390.00;5057037;28;20496;-53
2022/07/06 04:03:26;;;;;;;40.28;7.28;;;;;;;14.47;100.00;98391.84;5059551;28;20414;-52
2022/07/06 04:05:52;;;;;;;42.03;7.55;;;;;;;14.27;100.00;98382.34;5059132;28;20048;-52
2022/07/06 04:08:18;;;;;;;52.20;8.73;;;;;;;14.36;100.00;98389.78;5056949;28;20429;-52
2022/07/06 04:10:43;;;;;;;40.65;7.63;;;;;;;14.32;100.00;98398.72;5057672;28;20053;-54
2022/07/06 04:13:08;;;;;;;48.10;8.18;;;;;;;14.44;100.00;98392.84;5058964;28;20040;-52
2022/07/06 04:15:34;;;;;;;44.22;7.93;;;;;;;14.45;100.00;98397.19;5058095;28;20067;-52
2022/07/06 04:17:59;;;;;;;42.58;7.85;;;;;;;15.06;100.00;98392.34;5059560;28;20054;-55
2022/07/06 04:20:25;;;;;;;42.83;7.90;;;;;;;15.23;100.00;98389.66;5063605;28;20546;-53
2022/07/06 04:22:52;;;;;;;43.88;8.10;;;;;;;15.14;100.00;98390.13;5058504;28;20502;-52
2022/07/06 04:25:18;;;;;;;42.72;7.25;;;;;;;15.31;100.00;98393.66;5058519;28;20243;-54
2022/07/06 04:27:43;;;;;;;35.60;6.93;;;;;;;15.45;100.00;98399.00;5059421;28;20606;-53
2022/07/06 04:30:10;;;;;;;65.32;9.30;;;;;;;16.08;100.00;98402.56;5056969;28;20059;-53
2022/07/06 04:32:35;;;;;;;39.55;6.93;;;;;;;16.88;100.00;98405.84;5059342;28;20032;-54
2022/07/06 04:35:01;;;;;;;37.28;7.13;;;;;;;16.57;100.00;98399.72;5058637;28;20036;-53
2022/07/06 04:37:27;;;;;;;39.95;7.93;;;;;;;17.18;100.00;98404.91;5057990;28;20500;-54
2022/07/06 04:39:52;;;;;;;39.35;8.85;;;;;;;16.41;100.00;98415.56;5058151;28;20039;-52
2022/07/06 04:42:18;;;;;;;34.90;8.10;;;;;;;17.04;100.00;98424.19;5057289;28;20178;-52
2022/07/06 04:44:44;;;;;;;40.50;8.45;;;;;;;17.26;100.00;98418.44;5058045;28;20028;-55
2022/07/06 04:47:09;;;;;;;40.97;7.18;;;;;;;17.89;100.00;98411.91;5057475;28;20729;-53
2022/07/06 04:49:34;;;;;;;38.90;7.38;;;;;;;17.80;100.00;98418.56;5057952;28;20111;-55
2022/07/06 04:52:00;;;;;;;44.90;7.68;;;;;;;17.14;100.00;98418.25;5056989;28;20075;-52
2022/07/06 04:54:25;;;;;;;38.55;7.47;;;;;;;16.73;100.00;98426.84;5057731;28;20073;-54
2022/07/06 04:56:51;;;;;;;39.22;7.70;;;;;;;16.55;100.00;98428.78;5057454;28;20044;-52
2022/07/06 04:59:16;;;;;;;38.13;7.88;;;;;;;17.47;100.00;98432.94;5057631;28;20024;-52
2022/07/06 05:01:42;;;;;;;42.75;7.82;;;;;;;16.59;100.00;98439.97;5056733;28;20046;-53
2022/07/06 05:04:08;;;;;;;30.73;6.63;;;;;;;16.87;100.00;98438.38;5058578;28;20430;-52
2022/07/06 05:06:33;;;;;;;30.13;6.82;;;;;;;16.64;100.00;98439.72;5057838;28;20831;-52
2022/07/06 05:08:59;;;;;;;35.05;7.10;;;;;;;16.76;100.00;98439.84;5058131;28;20148;-52
2022/07/06 05:11:25;;;;;;;40.95;7.43;;;;;;;16.80;100.00;98440.53;5055461;28;20040;-53
2022/07/06 05:13:51;;;;;;;39.08;7.93;;;;;;;17.67;100.00;98446.69;5054112;28;20036;-53
2022/07/06 05:16:16;;;;;;;37.50;7.20;;;;;;;17.70;100.00;98449.16;5057266;28;20037;-54
2022/07/06 05:18:41;;;;;;;42.33;7.47;;;;;;;17.91;100.00;98453.06;5057297;28;20028;-53
2022/07/06 05:21:07;;;;;;;32.78;6.88;;;;;;;18.86;100.00;98450.44;5056488;28;20112;-53
2022/07/06 05:23:32;;;;;;;27.75;6.63;;;;;;;18.97;100.00;98445.28;5058043;28;20602;-52
2022/07/06 05:25:57;;;;;;;35.10;7.13;;;;;;;18.81;100.00;98452.56;5057907;28;20043;-52
2022/07/06 05:28:23;;;;;;;30.02;6.70;;;;;;;17.75;100.00;98457.59;5058151;28;20032;-53
2022/07/06 05:30:48;;;;;;;27.58;6.57;;;;;;;18.36;100.00;98451.97;5055342;28;20128;-53
2022/07/06 05:33:14;;;;;;;33.15;6.75;;;;;;;18.11;100.00;98448.31;5058085;28;20032;-53
2022/07/06 05:35:39;;;;;;;24.63;6.13;;;;;;;18.71;100.00;98459.38;5057961;28;20668;-53
2022/07/06 05:38:05;;;;;;;38.70;7.25;;;;;;;20.88;100.00;98463.38;5057666;28;20029;-53
2022/07/06 05:40:30;;;;;;;25.95;6.00;;;;;;;20.86;100.00;98457.38;5056047;28;20464;-53
2022/07/06 05:42:55;;;;;;;29.63;6.30;;;;;;;22.79;100.00;98456.19;5058263;28;20029;-53
2022/07/06 05:45:22;;;;;;;37.30;6.53;;;;;;;23.37;79.36;98446.91;5057491;28;20036;-52
2022/07/06 05:50:32;;;;;;;25.30;5.68;;;;;;;24.28;77.85;98455.75;5057188;28;20048;-52
2022/07/06 05:53:00;;;;;;;23.83;5.50;;;;;;;25.80;62.29;98458.56;5057495;28;20051;-53
2022/07/06 05:55:26;;;;;;;29.08;5.90;;;;;;;25.87;64.23;98460.50;5058446;28;20037;-52
2022/07/06 05:57:53;;;;;;;21.88;5.25;;;;;;;27.62;53.41;98457.34;5058638;28;20825;-53
2022/07/06 06:00:21;;;;;;;29.55;5.68;;;;;;;28.17;50.23;98451.53;5056240;28;20655;-56
2022/07/06 06:02:47;;;;;;;23.27;5.32;;;;;;;27.01;53.02;98443.06;5057740;28;21074;-53
2022/07/06 06:05:14;;;;;;;18.30;4.72;;;;;;;30.49;43.83;98451.75;5058034;28;20802;-53
2022/07/06 06:07:40;;;;;;;22.70;4.63;;;;;;;30.56;45.19;98450.00;5057869;28;20024;-54
2022/07/06 06:10:08;;;;;;;29.83;6.15;;;;;;;32.23;40.79;98447.06;5056827;28;20036;-55
2022/07/06 06:12:34;;;;;;;22.15;5.03;;;;;;;31.19;42.08;98448.97;5057938;28;20032;-53
2022/07/06 06:15:00;;;;;;;17.67;4.03;;;;;;;31.28;40.72;98454.13;5058402;28;20029;-54
2022/07/06 06:17:25;;;;;;;14.98;4.15;;;;;;;28.41;47.80;98450.72;5057813;28;20075;-53
2022/07/06 06:19:50;;;;;;;19.17;4.35;;;;;;;31.18;41.60;98453.53;5056227;28;20569;-54
2022/07/06 06:22:16;;;;;;;15.55;3.95;;;;;;;29.20;43.81;98444.88;5057042;28;20044;-53
2022/07/06 06:24:41;;;;;;;17.13;4.20;;;;;;;29.87;43.95;98449.06;5058567;28;20103;-52
2022/07/06 06:27:07;;;;;;;32.60;6.28;;;;;;;32.21;38.50;98442.91;5059249;28;20052;-53
2022/07/06 06:29:32;;;;;;;20.25;4.18;;;;;;;33.18;37.83;98444.25;5061415;28;20106;-53
2022/07/06 06:31:58;;;;;;;14.30;3.50;;;;;;;30.47;37.49;98448.38;5060302;28;20040;-53
2022/07/06 06:34:23;;;;;;;17.52;4.05;;;;;;;29.69;40.36;98439.38;5061240;28;20028;-53
2022/07/06 06:36:48;;;;;;;15.75;3.80;;;;;;;31.90;37.08;98452.06;5060561;28;20361;-53
2022/07/06 06:39:14;;;;;;;13.63;3.35;;;;;;;32.91;35.30;98448.56;5060799;28;20025;-53
2022/07/06 06:41:39;;;;;;;16.40;3.53;;;;;;;33.73;33.15;98449.75;5059743;28;20489;-52
2022/07/06 06:44:04;;;;;;;17.75;3.63;;;;;;;32.99;34.11;98451.13;5060900;28;20020;-52
2022/07/06 06:46:30;;;;;;;15.43;3.30;;;;;;;32.80;34.35;98448.06;5061443;28;20674;-53
2022/07/06 06:48:55;;;;;;;18.00;3.60;;;;;;;31.83;34.99;98443.88;5061710;28;20098;-52
2022/07/06 06:51:20;;;;;;;12.43;3.10;;;;;;;33.54;33.12;98451.31;5060258;28;20203;-52
2022/07/06 06:53:46;;;;;;;12.13;3.28;;;;;;;32.87;35.01;98445.44;5061122;28;20032;-53
2022/07/06 06:56:12;;;;;;;12.23;3.25;;;;;;;32.79;33.51;98445.53;5060173;28;20105;-53
2022/07/06 06:58:38;;;;;;;14.18;3.22;;;;;;;33.25;32.00;98450.53;5061136;28;20525;-53
2022/07/06 07:01:04;;;;;;;14.82;3.08;;;;;;;33.83;32.21;98452.94;5059844;28;20144;-55
2022/07/06 07:03:30;;;;;;;15.32;2.90;;;;;;;33.33;33.53;98444.13;5061178;28;20033;-55
2022/07/06 07:05:56;;;;;;;13.18;3.20;;;;;;;31.12;34.59;98447.03;5060828;28;20493;-52
2022/07/06 07:08:21;;;;;;;11.50;3.30;;;;;;;31.24;36.13;98439.31;5060600;28;20127;-53
2022/07/06 07:10:47;;;;;;;14.52;3.50;;;;;;;32.77;34.80;98437.66;5059294;28;20047;-53
2022/07/06 07:13:12;;;;;;;13.70;3.55;;;;;;;31.69;35.89;98445.56;5059692;28;20447;-52
2022/07/06 07:15:37;;;;;;;10.38;3.00;;;;;;;32.67;34.64;98447.94;5060626;28;20044;-54
2022/07/06 07:18:03;;;;;;;10.48;3.05;;;;;;;29.39;39.02;98457.09;5060559;28;20048;-54
2022/07/06 07:20:29;;;;;;;17.13;3.75;;;;;;;31.53;37.37;98448.47;5059331;28;20034;-53
2022/07/06 07:22:55;;;;;;;17.13;3.75;;;;;;;29.92;38.32;98452.06;5060400;28;20139;-53
2022/07/06 07:25:20;;;;;;;15.77;3.67;;;;;;;28.00;40.54;98449.81;5060007;28;20558;-56
2022/07/06 07:27:46;;;;;;;13.95;3.25;;;;;;;31.27;36.97;98443.53;5059322;28;20031;-54
2022/07/06 07:30:11;;;;;;;24.73;4.78;;;;;;;32.28;35.03;98444.63;5047782;28;20036;-53
2022/07/06 07:32:37;;;;;;;14.07;3.28;;;;;;;31.24;35.19;98441.19;5060215;28;20036;-53
2022/07/06 07:35:03;;;;;;;12.65;3.30;;;;;;;32.23;35.44;98447.06;5060217;28;20451;-53
2022/07/06 07:37:29;;;;;;;15.18;3.40;;;;;;;29.75;37.70;98446.75;5059626;28;20199;-52
2022/07/06 07:39:55;;;;;;;13.13;3.28;;;;;;;29.16;38.45;98443.56;5059520;28;20031;-53
2022/07/06 07:42:20;;;;;;;15.05;3.50;;;;;;;30.52;37.88;98448.69;5059980;28;20032;-53
2022/07/06 07:44:45;;;;;;;13.70;3.30;;;;;;;29.69;39.73;98463.56;5060258;28;20024;-54
2022/07/06 07:47:11;;;;;;;16.60;3.53;;;;;;;31.15;37.38;98443.13;5059596;28;21055;-52
2022/07/06 07:49:36;;;;;;;13.55;3.33;;;;;;;32.65;35.22;98450.00;5059776;28;20599;-53
2022/07/06 07:52:02;;;;;;;13.35;3.28;;;;;;;30.94;35.59;98444.66;5056629;28;20085;-53
2022/07/06 07:54:27;;;;;;;13.35;3.20;;;;;;;29.89;37.24;98452.44;5059911;28;20829;-53
2022/07/06 07:56:54;;;;;;;13.98;3.38;;;;;;;28.95;38.04;98444.03;5059184;28;20040;-55
2022/07/06 07:59:19;;;;;;;15.65;3.33;;;;;;;27.92;40.19;98445.28;5059418;28;20020;-52
2022/07/06 08:01:44;;;;;;;15.90;3.67;;;;;;;31.62;35.53;98444.66;5056010;28;20047;-54
2022/07/06 08:04:10;;;;;;;15.35;3.17;;;;;;;31.56;35.63;98445.41;5059532;28;20031;-55
2022/07/06 08:06:35;;;;;;;15.57;3.28;;;;;;;33.65;33.17;98447.22;5058435;28;20101;-53
2022/07/06 08:09:03;;;;;;;12.93;3.22;;;;;;;34.50;32.39;98447.72;5059397;28;20056;-54
2022/07/06 08:11:28;;;;;;;12.63;3.05;;;;;;;33.69;32.26;98443.09;5058988;28;20044;-53
2022/07/06 08:13:53;;;;;;;13.82;3.10;;;;;;;31.64;35.32;98448.00;5057919;28;20093;-52
2022/07/06 08:16:19;;;;;;;14.82;3.53;;;;;;;36.55;29.45;98438.50;5058860;28;20047;-53
2022/07/06 08:18:44;;;;;;;13.13;3.55;;;;;;;33.54;32.04;98449.44;5059325;28;20020;-54
2022/07/06 08:21:11;;;;;;;12.02;3.00;;;;;;;34.50;31.01;98453.16;5058684;28;20048;-53
2022/07/06 08:23:36;;;;;;;10.73;3.05;;;;;;;34.99;29.57;98441.13;5059332;28;20020;-53
2022/07/06 08:26:02;;;;;;;12.10;2.95;;;;;;;32.03;31.77;98446.84;5059167;28;20037;-54
2022/07/06 08:28:28;;;;;;;10.02;2.85;;;;;;;35.43;28.65;98436.91;5058943;28;20024;-54
2022/07/06 08:30:54;;;;;;;12.27;3.20;;;;;;;35.42;29.58;98437.97;5057765;28;20040;-53
2022/07/06 08:33:20;;;;;;;11.63;3.25;;;;;;;34.79;29.93;98443.81;5058184;28;20020;-53
2022/07/06 08:35:45;;;;;;;13.18;2.80;;;;;;;35.08;29.20;98444.44;5058776;28;20086;-54
2022/07/06 08:38:10;;;;;;;10.25;3.10;;;;;;;32.98;30.37;98444.06;5058999;28;20025;-53
2022/07/06 08:40:40;;;;;;;10.63;3.17;;;;;;;34.86;29.12;98435.72;5057564;28;20038;-53
2022/07/06 08:43:05;;;;;;;10.25;3.00;;;;;;;31.87;31.37;98433.53;5058688;28;20016;-53
2022/07/06 08:45:34;;;;;;;16.58;3.20;;;;;;;32.18;31.98;98437.88;5059293;28;20038;-53
2022/07/06 08:48:04;;;;;;;14.13;3.20;;;;;;;32.06;33.58;98441.06;5057947;28;20525;-54
2022/07/06 08:50:30;;;;;;;9.35;2.67;;;;;;;34.66;30.55;98446.50;5057169;28;20043;-53
2022/07/06 08:52:56;;;;;;;11.23;3.10;;;;;;;33.46;29.48;98443.38;5059730;28;20021;-53
2022/07/06 08:55:21;;;;;;;11.18;2.95;;;;;;;33.75;29.57;98445.00;5058176;28;20031;-54
2022/07/06 08:57:47;;;;;;;12.70;2.85;;;;;;;33.98;31.44;98445.50;5059231;28;20193;-54
2022/07/06 09:00:13;;;;;;;16.35;3.65;;;;;;;32.31;29.58;98448.81;5057889;28;20135;-53
2022/07/06 09:02:40;;;;;;;26.20;3.20;;;;;;;33.69;28.38;98445.78;5057960;28;20028;-52
2022/07/06 09:05:08;;;;;;;11.23;2.75;;;;;;;34.94;27.78;98438.19;5058301;28;20601;-53
2022/07/06 09:07:34;;;;;;;11.18;3.13;;;;;;;33.55;27.46;98440.28;5059411;28;21038;-53
2022/07/06 09:09:59;;;;;;;12.50;3.40;;;;;;;34.42;28.38;98437.09;5058876;28;20027;-54
2022/07/06 09:12:27;;;;;;;10.32;2.80;;;;;;;34.54;28.73;98435.47;5058133;28;20101;-52
2022/07/06 09:14:57;;;;;;;11.05;2.90;;;;;;;35.00;28.59;98425.69;5058289;28;20783;-52
2022/07/06 09:17:28;;;;;;;8.95;2.83;;;;;;;31.14;32.82;98430.69;5057630;28;20083;-54
2022/07/06 09:19:54;;;;;;;14.57;3.10;;;;;;;30.18;33.90;98441.84;5057969;28;20060;-52
2022/07/06 09:22:31;;;;;;;10.05;2.90;;;;;;;30.24;35.00;98428.69;5058476;28;20055;-52
2022/07/06 09:25:10;;;;;;;11.02;3.03;;;;;;;29.91;35.12;98434.25;5059063;28;20024;-54
2022/07/06 09:27:40;;;;;;;14.40;3.70;;;;;;;32.39;31.95;98432.50;5057695;28;20036;-54
2022/07/06 09:30:08;;;;;;;19.70;4.38;;;;;;;31.54;31.67;98420.50;5056386;28;20588;-54
2022/07/06 09:32:45;;;;;;;11.68;3.20;;;;;;;32.08;31.23;98433.63;5057654;28;20044;-53
2022/07/06 09:35:31;;;;;;;14.50;3.45;;;;;;;32.63;30.58;98425.91;5057510;28;20028;-53
2022/07/06 09:38:07;;;;;;;19.75;3.65;;;;;;;31.43;32.19;98429.84;5057587;28;20565;-52
2022/07/06 09:40:44;;;;;;;14.38;3.38;;;;;;;32.06;31.53;98429.47;5057361;28;20036;-53
2022/07/06 09:43:23;;;;;;;12.25;2.70;;;;;;;33.61;29.33;98428.66;5058842;28;20785;-54
2022/07/06 09:45:50;;;;;;;11.88;3.15;;;;;;;30.51;32.47;98436.25;5058090;28;20036;-53
2022/07/06 09:48:21;;;;;;;14.75;3.58;;;;;;;29.83;33.70;98436.97;5058003;28;20028;-52
2022/07/06 09:50:53;;;;;;;14.82;3.53;;;;;;;30.97;33.12;98445.31;5056586;28;20105;-52
2022/07/06 09:53:21;;;;;;;15.40;3.70;;;;;;;30.58;34.07;98439.06;5057258;28;20498;-53
2022/07/06 09:55:47;;;;;;;12.43;3.13;;;;;;;29.91;35.51;98450.41;5058105;28;20051;-53
2022/07/06 09:58:14;;;;;;;14.82;3.15;;;;;;;29.68;34.49;98439.53;5058265;28;20031;-52
2022/07/06 10:00:40;;;;;;;11.52;2.97;;;;;;;31.08;31.63;98447.56;5061402;28;20124;-53
2022/07/06 10:03:07;;;;;;;17.58;3.47;;;;;;;32.12;31.55;98444.88;5063027;28;20067;-52
2022/07/06 10:05:36;;;;;;;15.82;3.05;;;;;;;31.19;30.93;98432.81;5063720;28;20091;-55
2022/07/06 10:08:01;;;;;;;11.57;2.92;;;;;;;28.71;34.59;98445.78;5063104;28;20017;-54
2022/07/06 10:10:28;;;;;;;11.00;3.05;;;;;;;30.28;34.67;98451.53;5062764;28;20109;-51
2022/07/06 10:12:56;;;;;;;12.63;2.92;;;;;;;30.40;31.81;98433.97;5064625;28;20036;-54
2022/07/06 10:15:24;;;;;;;11.85;3.00;;;;;;;31.01;31.52;98438.53;5063967;28;20099;-53
2022/07/06 10:17:50;;;;;;;13.57;3.15;;;;;;;30.70;32.35;98440.31;5065069;28;20041;-53
2022/07/06 10:20:17;;;;;;;15.25;3.35;;;;;;;30.09;34.39;98439.34;5063504;28;20624;-55
2022/07/06 10:22:42;;;;;;;13.70;3.10;;;;;;;30.37;33.77;98450.50;5064141;28;20031;-56
2022/07/06 10:25:08;;;;;;;11.40;2.92;;;;;;;31.52;32.39;98444.09;5063367;28;20024;-55
2022/07/06 10:27:34;;;;;;;12.32;3.15;;;;;;;30.81;32.34;98435.53;5063846;28;20398;-54
2022/07/06 10:30:00;;;;;;;19.33;4.18;;;;;;;30.09;33.16;98448.28;5063084;28;20502;-53
2022/07/06 10:32:27;;;;;;;15.32;3.60;;;;;;;30.70;32.42;98439.47;5063258;28;20044;-53
2022/07/06 10:34:53;;;;;;;9.82;2.63;;;;;;;30.32;32.72;98439.38;5063001;28;20882;-53
2022/07/06 10:37:26;;;;;;;16.13;3.47;;;;;;;30.38;34.04;98452.16;5063677;28;20525;-53
2022/07/06 10:42:44;;;;;;;11.93;3.00;;;;;;;29.93;34.97;98445.69;5063550;28;20525;-53
2022/07/06 10:45:28;;;;;;;13.15;3.00;;;;;;;28.32;35.79;98449.03;5063315;28;20020;-54
2022/07/06 10:48:11;;;;;;;19.55;3.20;;;;;;;29.84;33.34;98452.94;5064610;28;20024;-53
2022/07/06 10:50:55;;;;;;;13.15;3.22;;;;;;;29.74;33.65;98431.66;5061621;28;20878;-52
2022/07/06 10:53:30;;;;;;;11.90;3.00;;;;;;;29.46;35.56;98430.38;5063279;28;20031;-54
2022/07/06 10:55:56;;;;;;;12.23;2.72;;;;;;;29.69;33.77;98431.31;5063460;28;20040;-54
2022/07/06 10:58:41;;;;;;;11.52;2.95;;;;;;;28.79;34.69;98434.19;5063790;28;20033;-54
2022/07/06 11:01:10;;;;;;;13.38;2.92;;;;;;;27.84;36.65;98440.66;5062547;28;20114;-53
2022/07/06 11:03:55;;;;;;;13.80;3.30;;;;;;;27.27;36.31;98443.09;5063260;28;20032;-54
2022/07/06 11:06:23;;;;;;;16.58;3.40;;;;;;;27.18;37.88;98450.19;5063144;28;20074;-55
2022/07/06 11:08:58;;;;;;;17.92;3.47;;;;;;;28.61;36.45;98448.59;5063048;28;20036;-53
2022/07/06 11:11:37;;;;;;;15.10;3.40;;;;;;;29.43;35.09;98447.69;5061374;28;20110;-54
2022/07/06 11:14:13;;;;;;;18.60;3.50;;;;;;;29.66;35.44;98444.25;5062933;28;20020;-54
2022/07/06 11:16:48;;;;;;;17.60;3.70;;;;;;;29.91;34.54;98434.25;5062155;28;20037;-53
2022/07/06 11:19:14;;;;;;;15.65;3.38;;;;;;;29.64;35.51;98438.22;5062533;28;20031;-53
2022/07/06 11:21:56;;;;;;;16.20;3.55;;;;;;;28.63;36.12;98432.34;5061577;28;20091;-56
2022/07/06 11:24:29;;;;;;;11.27;2.88;;;;;;;27.65;37.36;98435.59;5062700;28;20029;-53
2022/07/06 11:26:56;;;;;;;14.98;3.50;;;;;;;28.00;37.87;98439.09;5062232;28;20090;-53
2022/07/06 11:29:24;;;;;;;14.75;3.30;;;;;;;28.66;36.27;98437.38;5062490;28;20139;-54